sensor_id;sensor_type;location;lat;lon;timestamp;P1;durP1;ratioP1;P2;durP2;ratioP2
69434;SDS011;56625;54.322;18.582;2023-02-16T00:01:25;68.30;;;22.40;;
69434;SDS011;56625;54.322;18.582;2023-02-16T00:04:01;67.70;;;22.40;;
69434;SDS011;56625;54.322;18.582;2023-02-16T00:06:39;70.40;;;23.00;;
69434;SDS011;56625;54.322;18.582;2023-02-16T00:09:07;58.40;;;19.10;;
69434;SDS011;56625;54.322;18.582;2023-02-16T00:11:39;41.80;;;13.60;;
69434;SDS011;56625;54.322;18.582;2023-02-16T00:14:27;74.70;;;24.20;;
69434;SDS011;56625;54.322;18.582;2023-02-16T00:16:57;48.90;;;14.60;;
69434;SDS011;56625;54.322;18.582;2023-02-16T00:19:35;72.90;;;22.60;;
69434;SDS011;56625;54.322;18.582;2023-02-16T00:22:09;53.80;;;18.60;;
69434;SDS011;56625;54.322;18.582;2023-02-16T00:24:38;66.20;;;21.60;;
69434;SDS011;56625;54.322;18.582;2023-02-16T00:27:14;65.70;;;21.10;;
69434;SDS011;56625;54.322;18.582;2023-02-16T00:29:48;76.70;;;24.60;;
69434;SDS011;56625;54.322;18.582;2023-02-16T00:32:17;63.40;;;20.70;;
69434;SDS011;56625;54.322;18.582;2023-02-16T00:34:46;62.60;;;21.80;;
69434;SDS011;56625;54.322;18.582;2023-02-16T00:37:17;67.30;;;21.10;;
69434;SDS011;56625;54.322;18.582;2023-02-16T00:39:45;62.20;;;20.80;;
69434;SDS011;56625;54.322;18.582;2023-02-16T00:42:19;75.90;;;24.60;;
69434;SDS011;56625;54.322;18.582;2023-02-16T00:44:54;64.80;;;21.80;;
69434;SDS011;56625;54.322;18.582;2023-02-16T00:47:34;67.90;;;22.10;;
69434;SDS011;56625;54.322;18.582;2023-02-16T00:52:49;74.90;;;24.20;;
69434;SDS011;56625;54.322;18.582;2023-02-16T00:55:20;77.30;;;23.90;;
69434;SDS011;56625;54.322;18.582;2023-02-16T00:57:54;68.20;;;21.80;;
69434;SDS011;56625;54.322;18.582;2023-02-16T01:00:37;70.70;;;21.90;;
69434;SDS011;56625;54.322;18.582;2023-02-16T01:03:13;79.30;;;25.40;;
69434;SDS011;56625;54.322;18.582;2023-02-16T01:05:46;67.50;;;21.50;;
69434;SDS011;56625;54.322;18.582;2023-02-16T01:08:16;67.90;;;21.60;;
69434;SDS011;56625;54.322;18.582;2023-02-16T01:11:04;78.40;;;23.50;;
69434;SDS011;56625;54.322;18.582;2023-02-16T01:13:48;73.40;;;22.80;;
69434;SDS011;56625;54.322;18.582;2023-02-16T01:16:24;70.40;;;23.40;;
69434;SDS011;56625;54.322;18.582;2023-02-16T01:19:12;65.80;;;20.60;;
69434;SDS011;56625;54.322;18.582;2023-02-16T01:21:40;74.80;;;24.90;;
69434;SDS011;56625;54.322;18.582;2023-02-16T01:24:11;71.50;;;23.20;;
69434;SDS011;56625;54.322;18.582;2023-02-16T01:26:45;69.80;;;24.10;;
69434;SDS011;56625;54.322;18.582;2023-02-16T01:29:18;63.10;;;20.70;;
69434;SDS011;56625;54.322;18.582;2023-02-16T01:31:47;71.10;;;23.10;;
69434;SDS011;56625;54.322;18.582;2023-02-16T01:34:16;71.00;;;23.10;;
69434;SDS011;56625;54.322;18.582;2023-02-16T01:36:47;63.30;;;21.90;;
69434;SDS011;56625;54.322;18.582;2023-02-16T01:39:18;70.70;;;21.70;;
69434;SDS011;56625;54.322;18.582;2023-02-16T01:45:10;65.10;;;21.50;;
69434;SDS011;56625;54.322;18.582;2023-02-16T01:47:59;68.90;;;23.20;;
69434;SDS011;56625;54.322;18.582;2023-02-16T01:50:48;68.90;;;21.30;;
69434;SDS011;56625;54.322;18.582;2023-02-16T01:53:46;65.40;;;20.50;;
69434;SDS011;56625;54.322;18.582;2023-02-16T01:56:42;57.90;;;17.90;;
69434;SDS011;56625;54.322;18.582;2023-02-16T02:02:22;66.10;;;21.10;;
69434;SDS011;56625;54.322;18.582;2023-02-16T02:13:55;58.10;;;18.90;;
69434;SDS011;56625;54.322;18.582;2023-02-16T02:16:30;67.50;;;21.60;;
69434;SDS011;56625;54.322;18.582;2023-02-16T02:18:58;64.40;;;20.70;;
69434;SDS011;56625;54.322;18.582;2023-02-16T02:25:25;42.00;;;11.50;;
69434;SDS011;56625;54.322;18.582;2023-02-16T02:37:44;66.70;;;21.30;;
69434;SDS011;56625;54.322;18.582;2023-02-16T02:43:49;64.00;;;22.20;;
69434;SDS011;56625;54.322;18.582;2023-02-16T02:46:31;69.40;;;22.30;;
69434;SDS011;56625;54.322;18.582;2023-02-16T02:49:04;59.40;;;20.90;;
69434;SDS011;56625;54.322;18.582;2023-02-16T02:51:32;63.60;;;19.90;;
69434;SDS011;56625;54.322;18.582;2023-02-16T02:54:15;57.30;;;18.00;;
69434;SDS011;56625;54.322;18.582;2023-02-16T03:00:26;56.50;;;17.10;;
69434;SDS011;56625;54.322;18.582;2023-02-16T03:06:03;60.70;;;18.60;;
69434;SDS011;56625;54.322;18.582;2023-02-16T03:08:40;63.60;;;19.40;;
69434;SDS011;56625;54.322;18.582;2023-02-16T03:11:19;67.40;;;21.90;;
69434;SDS011;56625;54.322;18.582;2023-02-16T03:14:19;49.10;;;14.80;;
69434;SDS011;56625;54.322;18.582;2023-02-16T03:16:58;61.10;;;18.10;;
69434;SDS011;56625;54.322;18.582;2023-02-16T03:19:50;60.40;;;17.70;;
69434;SDS011;56625;54.322;18.582;2023-02-16T03:22:38;60.30;;;18.90;;
69434;SDS011;56625;54.322;18.582;2023-02-16T03:25:29;59.30;;;19.10;;
69434;SDS011;56625;54.322;18.582;2023-02-16T03:28:24;58.30;;;18.50;;
69434;SDS011;56625;54.322;18.582;2023-02-16T03:31:21;60.80;;;19.90;;
69434;SDS011;56625;54.322;18.582;2023-02-16T03:33:52;68.20;;;23.20;;
69434;SDS011;56625;54.322;18.582;2023-02-16T03:36:24;54.20;;;17.10;;
69434;SDS011;56625;54.322;18.582;2023-02-16T03:38:58;58.20;;;18.30;;
69434;SDS011;56625;54.322;18.582;2023-02-16T03:41:32;65.90;;;21.10;;
69434;SDS011;56625;54.322;18.582;2023-02-16T03:44:02;61.50;;;21.30;;
69434;SDS011;56625;54.322;18.582;2023-02-16T03:46:32;64.30;;;20.20;;
69434;SDS011;56625;54.322;18.582;2023-02-16T03:49:03;57.80;;;19.20;;
69434;SDS011;56625;54.322;18.582;2023-02-16T03:51:31;51.70;;;18.00;;
69434;SDS011;56625;54.322;18.582;2023-02-16T03:54:02;59.90;;;18.80;;
69434;SDS011;56625;54.322;18.582;2023-02-16T03:56:30;56.50;;;19.60;;
69434;SDS011;56625;54.322;18.582;2023-02-16T03:58:58;47.60;;;14.30;;
69434;SDS011;56625;54.322;18.582;2023-02-16T04:01:26;55.60;;;17.50;;
69434;SDS011;56625;54.322;18.582;2023-02-16T04:03:54;62.40;;;20.20;;
69434;SDS011;56625;54.322;18.582;2023-02-16T04:06:21;63.60;;;20.30;;
69434;SDS011;56625;54.322;18.582;2023-02-16T04:08:49;59.60;;;19.80;;
69434;SDS011;56625;54.322;18.582;2023-02-16T04:11:17;63.70;;;21.10;;
69434;SDS011;56625;54.322;18.582;2023-02-16T04:14:04;52.40;;;17.30;;
69434;SDS011;56625;54.322;18.582;2023-02-16T04:16:32;54.20;;;17.70;;
69434;SDS011;56625;54.322;18.582;2023-02-16T04:18:59;51.20;;;15.50;;
69434;SDS011;56625;54.322;18.582;2023-02-16T04:21:27;62.20;;;19.40;;
69434;SDS011;56625;54.322;18.582;2023-02-16T04:23:55;56.30;;;19.20;;
69434;SDS011;56625;54.322;18.582;2023-02-16T04:26:23;67.60;;;20.10;;
69434;SDS011;56625;54.322;18.582;2023-02-16T04:28:51;54.50;;;17.40;;
69434;SDS011;56625;54.322;18.582;2023-02-16T04:31:19;62.70;;;20.40;;
69434;SDS011;56625;54.322;18.582;2023-02-16T04:33:47;56.30;;;18.80;;
69434;SDS011;56625;54.322;18.582;2023-02-16T04:36:15;56.80;;;18.00;;
69434;SDS011;56625;54.322;18.582;2023-02-16T04:38:43;58.00;;;20.10;;
69434;SDS011;56625;54.322;18.582;2023-02-16T04:41:11;47.90;;;15.00;;
69434;SDS011;56625;54.322;18.582;2023-02-16T04:43:38;45.90;;;13.90;;
69434;SDS011;56625;54.322;18.582;2023-02-16T04:46:06;54.00;;;16.40;;
69434;SDS011;56625;54.322;18.582;2023-02-16T04:48:34;42.20;;;13.70;;
69434;SDS011;56625;54.322;18.582;2023-02-16T04:51:03;30.80;;;10.50;;
69434;SDS011;56625;54.322;18.582;2023-02-16T04:53:32;37.60;;;12.10;;
69434;SDS011;56625;54.322;18.582;2023-02-16T04:56:00;52.20;;;16.80;;
69434;SDS011;56625;54.322;18.582;2023-02-16T04:58:28;46.10;;;13.50;;
69434;SDS011;56625;54.322;18.582;2023-02-16T05:00:56;37.80;;;12.40;;
69434;SDS011;56625;54.322;18.582;2023-02-16T05:03:24;40.30;;;12.60;;
69434;SDS011;56625;54.322;18.582;2023-02-16T05:05:52;35.30;;;12.00;;
69434;SDS011;56625;54.322;18.582;2023-02-16T05:08:20;57.50;;;17.60;;
69434;SDS011;56625;54.322;18.582;2023-02-16T05:10:48;61.30;;;18.70;;
69434;SDS011;56625;54.322;18.582;2023-02-16T05:13:34;47.20;;;15.30;;
69434;SDS011;56625;54.322;18.582;2023-02-16T05:16:21;56.00;;;17.60;;
69434;SDS011;56625;54.322;18.582;2023-02-16T05:18:51;51.60;;;16.70;;
69434;SDS011;56625;54.322;18.582;2023-02-16T05:21:19;52.30;;;16.00;;
69434;SDS011;56625;54.322;18.582;2023-02-16T05:24:05;46.60;;;14.20;;
69434;SDS011;56625;54.322;18.582;2023-02-16T05:26:38;50.20;;;16.20;;
69434;SDS011;56625;54.322;18.582;2023-02-16T05:29:06;36.60;;;11.80;;
69434;SDS011;56625;54.322;18.582;2023-02-16T05:31:34;31.40;;;9.50;;
69434;SDS011;56625;54.322;18.582;2023-02-16T05:34:04;41.00;;;12.00;;
69434;SDS011;56625;54.322;18.582;2023-02-16T05:36:31;27.30;;;8.20;;
69434;SDS011;56625;54.322;18.582;2023-02-16T05:38:59;34.80;;;11.50;;
69434;SDS011;56625;54.322;18.582;2023-02-16T05:41:27;51.40;;;15.50;;
69434;SDS011;56625;54.322;18.582;2023-02-16T05:43:59;44.60;;;14.60;;
69434;SDS011;56625;54.322;18.582;2023-02-16T05:46:32;32.50;;;10.00;;
69434;SDS011;56625;54.322;18.582;2023-02-16T05:49:03;55.60;;;19.70;;
69434;SDS011;56625;54.322;18.582;2023-02-16T05:51:32;34.90;;;10.70;;
69434;SDS011;56625;54.322;18.582;2023-02-16T05:54:00;49.40;;;14.80;;
69434;SDS011;56625;54.322;18.582;2023-02-16T05:56:28;44.70;;;13.80;;
69434;SDS011;56625;54.322;18.582;2023-02-16T05:58:57;53.80;;;15.30;;
69434;SDS011;56625;54.322;18.582;2023-02-16T06:01:27;56.70;;;16.50;;
69434;SDS011;56625;54.322;18.582;2023-02-16T06:03:56;44.50;;;12.80;;
69434;SDS011;56625;54.322;18.582;2023-02-16T06:06:23;33.80;;;10.90;;
69434;SDS011;56625;54.322;18.582;2023-02-16T06:08:51;33.40;;;10.40;;
69434;SDS011;56625;54.322;18.582;2023-02-16T06:11:19;48.60;;;14.20;;
69434;SDS011;56625;54.322;18.582;2023-02-16T06:14:06;36.70;;;10.70;;
69434;SDS011;56625;54.322;18.582;2023-02-16T06:16:37;42.70;;;11.60;;
69434;SDS011;56625;54.322;18.582;2023-02-16T06:19:07;55.00;;;17.20;;
69434;SDS011;56625;54.322;18.582;2023-02-16T06:21:36;58.70;;;17.60;;
69434;SDS011;56625;54.322;18.582;2023-02-16T06:24:06;51.30;;;14.90;;
69434;SDS011;56625;54.322;18.582;2023-02-16T06:26:35;43.30;;;15.40;;
69434;SDS011;56625;54.322;18.582;2023-02-16T06:29:04;50.90;;;13.40;;
69434;SDS011;56625;54.322;18.582;2023-02-16T06:31:32;34.80;;;9.90;;
69434;SDS011;56625;54.322;18.582;2023-02-16T06:34:03;55.10;;;17.80;;
69434;SDS011;56625;54.322;18.582;2023-02-16T06:36:32;34.40;;;11.10;;
69434;SDS011;56625;54.322;18.582;2023-02-16T06:39:00;45.50;;;14.30;;
69434;SDS011;56625;54.322;18.582;2023-02-16T06:41:29;56.90;;;17.20;;
69434;SDS011;56625;54.322;18.582;2023-02-16T06:44:12;48.20;;;15.40;;
69434;SDS011;56625;54.322;18.582;2023-02-16T06:46:44;26.20;;;8.60;;
69434;SDS011;56625;54.322;18.582;2023-02-16T06:49:17;46.30;;;13.20;;
69434;SDS011;56625;54.322;18.582;2023-02-16T06:51:48;46.00;;;13.20;;
69434;SDS011;56625;54.322;18.582;2023-02-16T06:54:16;42.70;;;13.60;;
69434;SDS011;56625;54.322;18.582;2023-02-16T06:56:45;58.60;;;17.50;;
69434;SDS011;56625;54.322;18.582;2023-02-16T06:59:12;49.30;;;15.10;;
69434;SDS011;56625;54.322;18.582;2023-02-16T07:01:40;51.70;;;15.90;;
69434;SDS011;56625;54.322;18.582;2023-02-16T07:04:11;33.50;;;11.60;;
69434;SDS011;56625;54.322;18.582;2023-02-16T07:06:40;44.10;;;11.70;;
69434;SDS011;56625;54.322;18.582;2023-02-16T07:09:08;52.90;;;15.40;;
69434;SDS011;56625;54.322;18.582;2023-02-16T07:11:39;26.20;;;8.00;;
69434;SDS011;56625;54.322;18.582;2023-02-16T07:14:07;50.30;;;15.20;;
69434;SDS011;56625;54.322;18.582;2023-02-16T07:16:35;34.90;;;10.00;;
69434;SDS011;56625;54.322;18.582;2023-02-16T07:19:03;29.20;;;10.00;;
69434;SDS011;56625;54.322;18.582;2023-02-16T07:21:32;23.80;;;7.90;;
69434;SDS011;56625;54.322;18.582;2023-02-16T07:24:00;47.60;;;14.50;;
69434;SDS011;56625;54.322;18.582;2023-02-16T07:26:28;46.80;;;14.10;;
69434;SDS011;56625;54.322;18.582;2023-02-16T07:28:56;29.70;;;9.90;;
69434;SDS011;56625;54.322;18.582;2023-02-16T07:31:24;43.30;;;12.60;;
69434;SDS011;56625;54.322;18.582;2023-02-16T07:33:53;25.50;;;7.80;;
69434;SDS011;56625;54.322;18.582;2023-02-16T07:36:21;47.60;;;14.90;;
69434;SDS011;56625;54.322;18.582;2023-02-16T07:38:48;44.90;;;13.70;;
69434;SDS011;56625;54.322;18.582;2023-02-16T07:41:16;47.50;;;14.30;;
69434;SDS011;56625;54.322;18.582;2023-02-16T07:43:52;43.00;;;13.50;;
69434;SDS011;56625;54.322;18.582;2023-02-16T07:46:21;32.80;;;10.40;;
69434;SDS011;56625;54.322;18.582;2023-02-16T07:48:49;26.70;;;8.50;;
69434;SDS011;56625;54.322;18.582;2023-02-16T07:51:22;30.90;;;10.00;;
69434;SDS011;56625;54.322;18.582;2023-02-16T07:53:51;47.30;;;15.00;;
69434;SDS011;56625;54.322;18.582;2023-02-16T07:56:21;34.00;;;11.10;;
69434;SDS011;56625;54.322;18.582;2023-02-16T07:58:55;53.20;;;17.10;;
69434;SDS011;56625;54.322;18.582;2023-02-16T08:01:25;34.10;;;12.70;;
69434;SDS011;56625;54.322;18.582;2023-02-16T08:03:55;27.90;;;8.90;;
69434;SDS011;56625;54.322;18.582;2023-02-16T08:06:23;27.90;;;10.00;;
69434;SDS011;56625;54.322;18.582;2023-02-16T08:08:51;44.10;;;13.80;;
69434;SDS011;56625;54.322;18.582;2023-02-16T08:11:22;42.60;;;13.50;;
69434;SDS011;56625;54.322;18.582;2023-02-16T08:13:51;45.20;;;14.40;;
69434;SDS011;56625;54.322;18.582;2023-02-16T08:16:22;46.90;;;14.60;;
69434;SDS011;56625;54.322;18.582;2023-02-16T08:18:54;33.90;;;11.80;;
69434;SDS011;56625;54.322;18.582;2023-02-16T08:21:26;44.80;;;13.30;;
69434;SDS011;56625;54.322;18.582;2023-02-16T08:23:58;50.70;;;16.00;;
69434;SDS011;56625;54.322;18.582;2023-02-16T08:26:37;44.70;;;14.60;;
69434;SDS011;56625;54.322;18.582;2023-02-16T08:29:08;37.90;;;10.80;;
69434;SDS011;56625;54.322;18.582;2023-02-16T08:31:37;53.50;;;14.20;;
69434;SDS011;56625;54.322;18.582;2023-02-16T08:34:05;44.00;;;13.60;;
69434;SDS011;56625;54.322;18.582;2023-02-16T08:36:36;52.30;;;16.00;;
69434;SDS011;56625;54.322;18.582;2023-02-16T08:39:12;49.90;;;16.40;;
69434;SDS011;56625;54.322;18.582;2023-02-16T08:41:42;55.10;;;16.30;;
69434;SDS011;56625;54.322;18.582;2023-02-16T08:44:14;40.80;;;13.60;;
69434;SDS011;56625;54.322;18.582;2023-02-16T08:46:46;42.00;;;13.10;;
69434;SDS011;56625;54.322;18.582;2023-02-16T08:49:16;42.00;;;13.80;;
69434;SDS011;56625;54.322;18.582;2023-02-16T08:51:47;43.30;;;13.70;;
69434;SDS011;56625;54.322;18.582;2023-02-16T08:54:29;49.90;;;14.50;;
69434;SDS011;56625;54.322;18.582;2023-02-16T08:57:00;47.40;;;14.60;;
69434;SDS011;56625;54.322;18.582;2023-02-16T08:59:29;46.40;;;14.70;;
69434;SDS011;56625;54.322;18.582;2023-02-16T09:01:58;44.60;;;13.80;;
69434;SDS011;56625;54.322;18.582;2023-02-16T09:04:27;38.90;;;12.00;;
69434;SDS011;56625;54.322;18.582;2023-02-16T09:06:57;49.60;;;16.20;;
69434;SDS011;56625;54.322;18.582;2023-02-16T09:09:26;50.70;;;15.00;;
69434;SDS011;56625;54.322;18.582;2023-02-16T09:11:55;57.60;;;18.40;;
69434;SDS011;56625;54.322;18.582;2023-02-16T09:14:24;52.10;;;17.70;;
69434;SDS011;56625;54.322;18.582;2023-02-16T09:16:53;46.00;;;13.90;;
69434;SDS011;56625;54.322;18.582;2023-02-16T09:19:21;52.90;;;17.10;;
69434;SDS011;56625;54.322;18.582;2023-02-16T09:21:49;49.20;;;15.00;;
69434;SDS011;56625;54.322;18.582;2023-02-16T09:24:22;44.70;;;13.50;;
69434;SDS011;56625;54.322;18.582;2023-02-16T09:26:50;47.70;;;15.80;;
69434;SDS011;56625;54.322;18.582;2023-02-16T09:29:18;46.10;;;15.80;;
69434;SDS011;56625;54.322;18.582;2023-02-16T09:31:47;46.00;;;13.70;;
69434;SDS011;56625;54.322;18.582;2023-02-16T09:34:21;50.50;;;14.80;;
69434;SDS011;56625;54.322;18.582;2023-02-16T09:36:50;45.60;;;14.30;;
69434;SDS011;56625;54.322;18.582;2023-02-16T09:39:18;47.10;;;15.50;;
69434;SDS011;56625;54.322;18.582;2023-02-16T09:47:31;49.40;;;16.60;;
69434;SDS011;56625;54.322;18.582;2023-02-16T09:53:21;48.50;;;16.00;;
69434;SDS011;56625;54.322;18.582;2023-02-16T09:55:58;44.60;;;15.70;;
69434;SDS011;56625;54.322;18.582;2023-02-16T10:01:30;46.60;;;15.10;;
69434;SDS011;56625;54.322;18.582;2023-02-16T10:04:35;41.10;;;14.50;;
69434;SDS011;56625;54.322;18.582;2023-02-16T10:07:30;44.90;;;15.50;;
69434;SDS011;56625;54.322;18.582;2023-02-16T10:12:52;38.90;;;14.80;;
69434;SDS011;56625;54.322;18.582;2023-02-16T10:15:25;43.30;;;15.60;;
69434;SDS011;56625;54.322;18.582;2023-02-16T10:20:41;43.30;;;14.80;;
69434;SDS011;56625;54.322;18.582;2023-02-16T10:23:47;45.30;;;16.30;;
69434;SDS011;56625;54.322;18.582;2023-02-16T10:29:16;35.90;;;13.40;;
69434;SDS011;56625;54.322;18.582;2023-02-16T10:34:50;43.20;;;15.20;;
69434;SDS011;56625;54.322;18.582;2023-02-16T10:43:38;40.80;;;14.10;;
69434;SDS011;56625;54.322;18.582;2023-02-16T10:46:22;41.80;;;15.50;;
69434;SDS011;56625;54.322;18.582;2023-02-16T10:48:54;39.90;;;15.20;;
69434;SDS011;56625;54.322;18.582;2023-02-16T10:51:25;42.30;;;15.40;;
69434;SDS011;56625;54.322;18.582;2023-02-16T10:54:06;40.80;;;14.90;;
69434;SDS011;56625;54.322;18.582;2023-02-16T10:59:40;36.70;;;14.40;;
69434;SDS011;56625;54.322;18.582;2023-02-16T11:02:21;38.50;;;14.30;;
69434;SDS011;56625;54.322;18.582;2023-02-16T11:04:52;38.10;;;15.00;;
69434;SDS011;56625;54.322;18.582;2023-02-16T11:07:27;36.10;;;14.50;;
69434;SDS011;56625;54.322;18.582;2023-02-16T11:09:58;38.40;;;14.80;;
69434;SDS011;56625;54.322;18.582;2023-02-16T11:12:44;39.00;;;16.20;;
69434;SDS011;56625;54.322;18.582;2023-02-16T11:15:25;38.60;;;15.90;;
69434;SDS011;56625;54.322;18.582;2023-02-16T11:17:57;40.10;;;15.40;;
69434;SDS011;56625;54.322;18.582;2023-02-16T11:28:46;37.10;;;14.30;;
69434;SDS011;56625;54.322;18.582;2023-02-16T11:34:06;37.00;;;14.90;;
69434;SDS011;56625;54.322;18.582;2023-02-16T11:36:43;38.60;;;14.40;;
69434;SDS011;56625;54.322;18.582;2023-02-16T11:39:18;36.90;;;12.80;;
69434;SDS011;56625;54.322;18.582;2023-02-16T11:41:52;36.80;;;13.90;;
69434;SDS011;56625;54.322;18.582;2023-02-16T11:47:36;33.90;;;13.60;;
69434;SDS011;56625;54.322;18.582;2023-02-16T11:50:24;37.10;;;14.30;;
69434;SDS011;56625;54.322;18.582;2023-02-16T11:53:19;27.20;;;9.90;;
69434;SDS011;56625;54.322;18.582;2023-02-16T11:56:08;33.80;;;12.70;;
69434;SDS011;56625;54.322;18.582;2023-02-16T11:59:16;40.20;;;14.20;;
69434;SDS011;56625;54.322;18.582;2023-02-16T12:02:34;30.80;;;11.80;;
69434;SDS011;56625;54.322;18.582;2023-02-16T12:06:06;29.10;;;11.40;;
69434;SDS011;56625;54.322;18.582;2023-02-16T12:08:51;37.50;;;14.50;;
69434;SDS011;56625;54.322;18.582;2023-02-16T12:20:48;35.40;;;14.40;;
69434;SDS011;56625;54.322;18.582;2023-02-16T12:23:31;40.10;;;16.00;;
69434;SDS011;56625;54.322;18.582;2023-02-16T12:26:23;41.70;;;15.60;;
69434;SDS011;56625;54.322;18.582;2023-02-16T12:29:20;42.40;;;16.20;;
69434;SDS011;56625;54.322;18.582;2023-02-16T12:32:19;36.10;;;12.30;;
69434;SDS011;56625;54.322;18.582;2023-02-16T12:45:08;33.90;;;12.70;;
69434;SDS011;56625;54.322;18.582;2023-02-16T12:47:56;32.10;;;10.70;;
69434;SDS011;56625;54.322;18.582;2023-02-16T12:50:32;39.50;;;14.10;;
69434;SDS011;56625;54.322;18.582;2023-02-16T12:53:07;39.00;;;14.60;;
69434;SDS011;56625;54.322;18.582;2023-02-16T12:56:01;39.10;;;15.50;;
69434;SDS011;56625;54.322;18.582;2023-02-16T12:58:43;42.10;;;17.20;;
69434;SDS011;56625;54.322;18.582;2023-02-16T13:01:18;40.10;;;16.10;;
69434;SDS011;56625;54.322;18.582;2023-02-16T13:04:16;46.60;;;19.10;;
69434;SDS011;56625;54.322;18.582;2023-02-16T13:07:09;45.80;;;18.70;;
69434;SDS011;56625;54.322;18.582;2023-02-16T13:10:14;49.50;;;17.00;;
69434;SDS011;56625;54.322;18.582;2023-02-16T13:12:55;51.60;;;20.90;;
69434;SDS011;56625;54.322;18.582;2023-02-16T13:15:33;55.60;;;22.70;;
69434;SDS011;56625;54.322;18.582;2023-02-16T13:18:26;51.00;;;22.20;;
69434;SDS011;56625;54.322;18.582;2023-02-16T13:21:26;48.30;;;21.00;;
69434;SDS011;56625;54.322;18.582;2023-02-16T13:27:26;56.40;;;22.30;;
69434;SDS011;56625;54.322;18.582;2023-02-16T13:30:19;52.00;;;22.30;;
69434;SDS011;56625;54.322;18.582;2023-02-16T13:39:06;56.80;;;24.20;;
69434;SDS011;56625;54.322;18.582;2023-02-16T13:44:47;53.20;;;23.70;;
69434;SDS011;56625;54.322;18.582;2023-02-16T13:47:26;55.20;;;24.40;;
69434;SDS011;56625;54.322;18.582;2023-02-16T13:50:00;55.10;;;23.80;;
69434;SDS011;56625;54.322;18.582;2023-02-16T13:52:40;54.40;;;24.70;;
69434;SDS011;56625;54.322;18.582;2023-02-16T13:55:29;53.10;;;22.70;;
69434;SDS011;56625;54.322;18.582;2023-02-16T14:00:36;59.00;;;25.70;;
69434;SDS011;56625;54.322;18.582;2023-02-16T14:05:51;57.60;;;25.00;;
69434;SDS011;56625;54.322;18.582;2023-02-16T14:08:29;55.30;;;25.40;;
69434;SDS011;56625;54.322;18.582;2023-02-16T14:11:03;57.90;;;26.20;;
69434;SDS011;56625;54.322;18.582;2023-02-16T14:19:17;59.00;;;25.60;;
69434;SDS011;56625;54.322;18.582;2023-02-16T14:21:51;52.90;;;21.50;;
69434;SDS011;56625;54.322;18.582;2023-02-16T14:24:28;55.60;;;23.80;;
69434;SDS011;56625;54.322;18.582;2023-02-16T14:27:05;54.40;;;22.80;;
69434;SDS011;56625;54.322;18.582;2023-02-16T14:29:45;55.20;;;23.70;;
69434;SDS011;56625;54.322;18.582;2023-02-16T14:32:29;52.40;;;23.90;;
69434;SDS011;56625;54.322;18.582;2023-02-16T14:35:21;57.90;;;25.10;;
69434;SDS011;56625;54.322;18.582;2023-02-16T14:38:06;53.10;;;23.50;;
69434;SDS011;56625;54.322;18.582;2023-02-16T14:40:57;57.50;;;24.40;;
69434;SDS011;56625;54.322;18.582;2023-02-16T14:43:39;53.40;;;22.30;;
69434;SDS011;56625;54.322;18.582;2023-02-16T14:52:38;57.80;;;22.90;;
69434;SDS011;56625;54.322;18.582;2023-02-16T14:58:54;51.40;;;22.40;;
69434;SDS011;56625;54.322;18.582;2023-02-16T15:01:38;54.40;;;24.30;;
69434;SDS011;56625;54.322;18.582;2023-02-16T15:04:10;56.30;;;24.50;;
69434;SDS011;56625;54.322;18.582;2023-02-16T15:06:43;58.10;;;24.90;;
69434;SDS011;56625;54.322;18.582;2023-02-16T15:09:19;55.40;;;24.00;;
69434;SDS011;56625;54.322;18.582;2023-02-16T15:11:56;59.00;;;24.00;;
69434;SDS011;56625;54.322;18.582;2023-02-16T15:14:55;58.50;;;25.30;;
69434;SDS011;56625;54.322;18.582;2023-02-16T15:17:34;59.10;;;25.70;;
69434;SDS011;56625;54.322;18.582;2023-02-16T15:20:09;59.00;;;24.10;;
69434;SDS011;56625;54.322;18.582;2023-02-16T15:22:48;56.00;;;24.90;;
69434;SDS011;56625;54.322;18.582;2023-02-16T15:25:28;62.50;;;25.60;;
69434;SDS011;56625;54.322;18.582;2023-02-16T15:28:14;56.60;;;25.00;;
69434;SDS011;56625;54.322;18.582;2023-02-16T15:30:48;58.50;;;25.30;;
69434;SDS011;56625;54.322;18.582;2023-02-16T15:36:03;57.80;;;24.50;;
69434;SDS011;56625;54.322;18.582;2023-02-16T15:38:39;63.60;;;25.70;;
69434;SDS011;56625;54.322;18.582;2023-02-16T15:41:14;58.50;;;24.70;;
69434;SDS011;56625;54.322;18.582;2023-02-16T15:43:51;65.20;;;28.70;;
69434;SDS011;56625;54.322;18.582;2023-02-16T15:46:40;56.40;;;23.50;;
69434;SDS011;56625;54.322;18.582;2023-02-16T15:51:57;67.20;;;26.80;;
69434;SDS011;56625;54.322;18.582;2023-02-16T15:54:29;60.80;;;26.10;;
69434;SDS011;56625;54.322;18.582;2023-02-16T15:57:23;69.30;;;28.60;;
69434;SDS011;56625;54.322;18.582;2023-02-16T16:00:17;63.70;;;26.10;;
69434;SDS011;56625;54.322;18.582;2023-02-16T16:02:49;64.60;;;25.50;;
69434;SDS011;56625;54.322;18.582;2023-02-16T16:05:27;62.50;;;25.60;;
69434;SDS011;56625;54.322;18.582;2023-02-16T16:07:59;61.30;;;25.40;;
69434;SDS011;56625;54.322;18.582;2023-02-16T16:10:35;53.70;;;23.70;;
69434;SDS011;56625;54.322;18.582;2023-02-16T16:13:17;57.90;;;24.80;;
69434;SDS011;56625;54.322;18.582;2023-02-16T16:15:48;62.00;;;25.40;;
69434;SDS011;56625;54.322;18.582;2023-02-16T16:21:24;68.40;;;25.30;;
69434;SDS011;56625;54.322;18.582;2023-02-16T16:23:58;60.40;;;24.30;;
69434;SDS011;56625;54.322;18.582;2023-02-16T16:26:35;56.60;;;25.30;;
69434;SDS011;56625;54.322;18.582;2023-02-16T16:32:05;68.30;;;26.80;;
69434;SDS011;56625;54.322;18.582;2023-02-16T16:34:44;68.40;;;26.60;;
69434;SDS011;56625;54.322;18.582;2023-02-16T16:37:33;65.70;;;26.20;;
69434;SDS011;56625;54.322;18.582;2023-02-16T16:40:22;70.10;;;25.60;;
69434;SDS011;56625;54.322;18.582;2023-02-16T16:48:19;63.50;;;25.10;;
69434;SDS011;56625;54.322;18.582;2023-02-16T16:51:12;62.30;;;25.30;;
69434;SDS011;56625;54.322;18.582;2023-02-16T16:54:01;69.10;;;26.40;;
69434;SDS011;56625;54.322;18.582;2023-02-16T16:57:14;67.70;;;25.40;;
69434;SDS011;56625;54.322;18.582;2023-02-16T16:59:47;72.50;;;27.90;;
69434;SDS011;56625;54.322;18.582;2023-02-16T17:02:15;68.60;;;26.70;;
69434;SDS011;56625;54.322;18.582;2023-02-16T17:04:43;75.40;;;29.30;;
69434;SDS011;56625;54.322;18.582;2023-02-16T17:07:10;74.60;;;27.70;;
69434;SDS011;56625;54.322;18.582;2023-02-16T17:09:40;76.70;;;28.10;;
69434;SDS011;56625;54.322;18.582;2023-02-16T17:12:10;81.40;;;28.70;;
69434;SDS011;56625;54.322;18.582;2023-02-16T17:14:38;81.20;;;28.10;;
69434;SDS011;56625;54.322;18.582;2023-02-16T17:17:06;88.70;;;32.20;;
69434;SDS011;56625;54.322;18.582;2023-02-16T17:19:41;78.50;;;27.60;;
69434;SDS011;56625;54.322;18.582;2023-02-16T17:22:14;87.00;;;30.60;;
69434;SDS011;56625;54.322;18.582;2023-02-16T17:24:55;78.90;;;30.40;;
69434;SDS011;56625;54.322;18.582;2023-02-16T17:27:23;81.90;;;31.10;;
69434;SDS011;56625;54.322;18.582;2023-02-16T17:29:52;79.00;;;29.80;;
69434;SDS011;56625;54.322;18.582;2023-02-16T17:32:24;75.80;;;28.60;;
69434;SDS011;56625;54.322;18.582;2023-02-16T17:34:56;76.70;;;30.50;;